In Rescue
 
Open Full Screen Window  High Contrast Mode
Wind Gusting 00 knots
08
June 22, 2024 8:45 PM EDT
Weather Information
Wind Direction
  220 °
Wind Speed
  08 kt (9 mph)
Wind Gust
  00 kt (0 mph)
Altimeter
29.91 in
Visibility
10 SM
Temperature
30° C
86° F
Dewpoint
14° C
57° F
Humidity
38%
Sky Condition
Clear
VFR

METAR KEDJ 230045Z AUTO 22008KT 10SM CLR 30/14 A2991 RMK A01

FAA Disclaimer: The data displayed is for advisory purposes only and is not to be used for flight planning or operations.